TLSO2: Arkansas River, Tulsa, OK

Data processed at Fri Mar 09 2018 23:47


All information presented herein is the property of the government of the United States of America and may be revised or deleted at any time without prior notice.
Dissemination of this information without the expressed written consent of the Public Affairs Office, Tulsa District U.S. Army Corps of Engineers is strictly prohibited.
These data are gathered electronically and, as presented, have not undergone any form of quality control. These data are not guaranteed to be valid or correct.
Go to home page.
Go to station list.

Upstream stations:

Downstream station:
Previous Day
Next Day
Current Day
    
SHEF ID:       TLSO2     Arkansas River at Tulsa, OK
STATION TYPE:  

               PRECIP     STAGE  STAGE(2)  RIV-FLOW  WTR-TEMP   DIS-OXY  BAT-LOAD
                   in        ft        ft       cfs         F      mg/l      volt
              Ccp-Rev   Ccp-Rev   Ccp-Rev   Ccp-Rev   Ccp-Rev   Ccp-Rev   Ccp-Rev
(US/Central)
03/07 00:00      0.00      2.72      ----      3610     45.52     11.52     12.57
03/07 01:00      0.00      2.62      ----      3244     45.01     11.48     12.57
03/07 02:00      0.00      2.53      ----      2936     44.55     11.46     12.57
03/07 03:00      0.00      2.43      ----      2617     44.11     11.29     12.49
03/07 04:00      0.00      2.36      ----      2408     43.63     11.24     12.49
03/07 05:00      0.00      2.32      ----      2293     43.16     11.10     12.49
03/07 06:00      0.00      2.28      ----      2182     42.85     11.00     12.41
03/07 07:00      0.00      2.22      ----      2023     42.53     11.22     12.41
03/07 08:00      0.00      2.17      ----      1896     42.22     11.48     12.65
03/07 09:00      0.00      2.15      ----      1846     42.21     11.70     13.92
03/07 10:00      0.00      2.13      ----      1798     42.40     12.24     13.76
03/07 11:00      0.00      2.12      ----      1774     43.12     12.59     13.37
03/07 12:00      0.00      2.09      ----      1704     44.17     13.00     13.21
03/07 13:00      0.00      2.06      ----      1635     45.14     13.24     13.76
03/07 14:00      0.00      2.10      ----      1727     46.40     13.52     12.97
03/07 15:00      0.00      2.40      ----      2526     47.82     13.41     13.84
03/07 16:00      0.00      2.76      ----      3763     50.27     13.03     13.37
03/07 17:00      0.00      2.88      ----      4250     50.77     13.04     12.97
03/07 18:00      0.00      2.84      ----      4083     50.09     12.95     12.89
03/07 19:00      0.00      2.80      ----      3921     49.66     12.68     12.73
03/07 20:00      0.00      2.71      ----      3572     49.15     12.47     12.65
03/07 21:00      0.00      2.62      ----      3244     48.87     12.36     12.65
03/07 22:00      0.00      2.53      ----      2936     48.38     12.28     12.65
03/07 23:00      0.00      2.46      ----      2710     47.88     12.18     12.65